Terminal Aerodrome Forecast
Issued by NWS

Home | Current Version | Previous Version | Text Only | Print | Product List | Glossary On
Versions: 1 2 3 4 5 6 7 8 9 10 11 12 13 14 15 16 17 18 19 20 21 22 23 24 25 26 27
000
FTUS46 KSGX 290750 AAA
TAFSAN
TAF AMD
KSAN 290750Z 2908/3012 VRB04KT 6SM BR BKN007
     FM290900 VRB03KT 2SM BR OVC005
     FM291530 VRB03KT P6SM FEW006
     FM291900 28009KT P6SM SKC
     FM300200 VRB05KT P6SM FEW007
     FM300500 VRB05KT 6SM BR BKN005=

USA.gov is the U.S. government's official web portal to all federal, state and local government web resources and services.